Time;durP1;ratioP1;P1;durP2;ratioP2;P2;SDS_P1;SDS_P2;PMS_P1;PMS_P2;Temp;Humidity;BMP_temperature;BMP_pressure;BME280_temperature;BME280_humidity;BME280_pressure;Samples;Min_cycle;Max_cycle;Signal;HPM_P1;HPM_P2
2021/07/06 00:01:51;;;;;;;6.40;5.90;;;;;;;;;;5035964;28;20417;-71
2021/07/06 00:04:17;;;;;;;7.37;6.20;;;;;;;;;;5036166;28;20423;-72
2021/07/06 00:06:43;;;;;;;6.03;5.47;;;;;;;;;;5035443;28;20416;-73
2021/07/06 00:09:09;;;;;;;6.70;6.10;;;;;;;;;;5035823;28;20526;-73
2021/07/06 00:11:35;;;;;;;6.17;5.60;;;;;;;;;;5035807;28;20427;-72
2021/07/06 00:14:01;;;;;;;6.17;5.57;;;;;;;;;;5035883;28;20413;-73
2021/07/06 00:16:27;;;;;;;6.23;5.73;;;;;;;;;;5035940;28;20413;-72
2021/07/06 00:18:53;;;;;;;5.90;5.40;;;;;;;;;;5035263;28;20818;-71
2021/07/06 00:21:19;;;;;;;5.87;5.37;;;;;;;;;;5035578;28;20417;-74
2021/07/06 00:23:45;;;;;;;5.90;5.40;;;;;;;;;;5035622;28;20412;-72
2021/07/06 00:26:11;;;;;;;5.80;5.33;;;;;;;;;;5035388;28;20423;-73
2021/07/06 00:28:37;;;;;;;5.37;4.87;;;;;;;;;;5034975;28;20460;-73
2021/07/06 00:31:04;;;;;;;5.40;5.00;;;;;;;;;;5035662;28;20457;-71
2021/07/06 00:33:30;;;;;;;5.37;4.87;;;;;;;;;;5035331;28;20421;-72
2021/07/06 00:36:01;;;;;;;7.30;5.30;;;;;;;;;;5035434;28;20421;-72
2021/07/06 00:38:28;;;;;;;5.83;5.40;;;;;;;;;;5035025;28;20483;-73
2021/07/06 00:40:55;;;;;;;5.63;5.13;;;;;;;;;;5035523;28;20440;-70
2021/07/06 00:43:22;;;;;;;5.50;4.40;;;;;;;;;;5035494;28;20568;-70
2021/07/06 00:45:48;;;;;;;5.20;4.80;;;;;;;;;;5035359;28;20423;-74
2021/07/06 00:48:15;;;;;;;5.07;4.60;;;;;;;;;;5035149;28;20927;-74
2021/07/06 00:50:41;;;;;;;5.43;4.80;;;;;;;;;;5035211;28;20990;-70
2021/07/06 00:53:07;;;;;;;8.73;5.57;;;;;;;;;;5035131;28;20800;-71
2021/07/06 00:55:33;;;;;;;6.00;5.60;;;;;;;;;;5035039;28;20516;-72
2021/07/06 00:57:59;;;;;;;5.70;5.30;;;;;;;;;;5034576;28;20419;-72
2021/07/06 01:00:26;;;;;;;5.00;4.60;;;;;;;;;;5035067;28;20456;-74
2021/07/06 01:02:52;;;;;;;5.70;5.20;;;;;;;;;;5034945;28;20420;-72
2021/07/06 01:05:23;;;;;;;5.57;5.17;;;;;;;;;;5034962;28;20961;-73
2021/07/06 01:07:50;;;;;;;4.70;4.30;;;;;;;;;;5034164;28;20428;-73
2021/07/06 01:10:16;;;;;;;6.10;5.60;;;;;;;;;;5033330;28;20984;-74
2021/07/06 01:12:43;;;;;;;5.27;4.87;;;;;;;;;;5034823;28;20417;-70
2021/07/06 01:15:12;;;;;;;6.17;4.20;;;;;;;;;;5033443;28;20420;-72
2021/07/06 01:17:39;;;;;;;5.43;5.03;;;;;;;;;;5034303;28;20416;-71
2021/07/06 01:20:07;;;;;;;4.87;4.47;;;;;;;;;;5034520;28;20523;-73
2021/07/06 01:22:33;;;;;;;5.43;5.03;;;;;;;;;;5034881;28;20499;-73
2021/07/06 01:25:04;;;;;;;5.60;4.20;;;;;;;;;;5034733;28;20555;-73
2021/07/06 01:27:30;;;;;;;5.00;4.53;;;;;;;;;;5032956;28;20421;-72
2021/07/06 01:29:56;;;;;;;5.00;4.20;;;;;;;;;;5034303;28;20530;-72
2021/07/06 01:32:22;;;;;;;5.07;4.63;;;;;;;;;;5034570;28;20417;-73
2021/07/06 01:34:48;;;;;;;5.10;4.60;;;;;;;;;;5034464;28;20405;-74
2021/07/06 01:37:18;;;;;;;5.50;4.00;;;;;;;;;;5034128;28;20419;-70
2021/07/06 01:39:45;;;;;;;7.00;4.70;;;;;;;;;;5034587;28;20465;-72
2021/07/06 01:42:11;;;;;;;5.73;4.60;;;;;;;;;;5034278;28;20427;-73
2021/07/06 01:44:38;;;;;;;5.07;4.67;;;;;;;;;;5034213;28;20412;-72
2021/07/06 01:47:04;;;;;;;5.00;4.43;;;;;;;;;;5033956;28;20416;-71
2021/07/06 01:49:32;;;;;;;5.77;5.27;;;;;;;;;;5033857;28;20460;-70
2021/07/06 01:51:59;;;;;;;4.73;4.43;;;;;;;;;;5034296;28;20751;-71
2021/07/06 01:54:25;;;;;;;5.03;4.63;;;;;;;;;;5034080;28;20492;-72
2021/07/06 01:56:51;;;;;;;5.07;4.53;;;;;;;;;;5033477;28;20401;-74
2021/07/06 01:59:17;;;;;;;5.30;4.40;;;;;;;;;;5033709;28;20447;-70
2021/07/06 02:01:44;;;;;;;5.80;4.10;;;;;;;;;;5033819;28;20411;-71
2021/07/06 02:04:10;;;;;;;4.70;4.23;;;;;;;;;;5033176;28;20482;-72
2021/07/06 02:06:36;;;;;;;5.03;4.13;;;;;;;;;;5033425;28;20413;-71
2021/07/06 02:09:02;;;;;;;4.50;4.10;;;;;;;;;;5033561;28;20804;-74
2021/07/06 02:11:28;;;;;;;4.87;4.20;;;;;;;;;;5032329;28;20479;-71
2021/07/06 02:13:55;;;;;;;4.60;4.30;;;;;;;;;;5033701;28;20413;-72
2021/07/06 02:16:21;;;;;;;4.53;4.23;;;;;;;;;;5033502;28;20478;-71
2021/07/06 02:18:47;;;;;;;4.53;4.13;;;;;;;;;;5033166;28;20448;-74
2021/07/06 02:21:14;;;;;;;4.57;4.17;;;;;;;;;;5033611;28;20940;-74
2021/07/06 02:23:40;;;;;;;4.43;4.03;;;;;;;;;;5033635;28;20431;-74
2021/07/06 02:26:08;;;;;;;4.83;4.33;;;;;;;;;;5033545;28;20417;-72
2021/07/06 02:28:35;;;;;;;8.10;4.83;;;;;;;;;;5032880;28;20977;-71
2021/07/06 02:31:02;;;;;;;4.50;4.10;;;;;;;;;;5033268;28;20432;-72
2021/07/06 02:33:33;;;;;;;4.20;3.80;;;;;;;;;;5033399;28;20408;-72
2021/07/06 02:36:04;;;;;;;7.13;4.67;;;;;;;;;;5028581;28;20503;-72
2021/07/06 02:38:30;;;;;;;4.37;4.07;;;;;;;;;;5033183;28;20408;-73
2021/07/06 02:40:56;;;;;;;4.90;4.50;;;;;;;;;;5026327;28;20817;-72
2021/07/06 02:43:22;;;;;;;5.30;4.80;;;;;;;;;;5033213;28;20727;-71
2021/07/06 02:45:48;;;;;;;5.07;4.63;;;;;;;;;;5031964;28;20405;-74
2021/07/06 02:48:15;;;;;;;5.70;4.43;;;;;;;;;;5032974;28;20436;-70
2021/07/06 02:50:41;;;;;;;5.23;4.80;;;;;;;;;;5032854;28;20535;-70
2021/07/06 02:53:10;;;;;;;4.90;4.50;;;;;;;;;;5033254;28;20416;-72
2021/07/06 02:55:36;;;;;;;5.10;4.67;;;;;;;;;;5033086;28;20416;-72
2021/07/06 02:58:03;;;;;;;8.00;4.87;;;;;;;;;;5032723;28;20416;-71
2021/07/06 03:00:30;;;;;;;5.37;4.30;;;;;;;;;;5032755;28;20451;-72
2021/07/06 03:02:57;;;;;;;4.90;4.50;;;;;;;;;;5032871;28;20833;-73
2021/07/06 03:05:27;;;;;;;5.80;4.03;;;;;;;;;;5032797;28;20416;-75
2021/07/06 03:07:54;;;;;;;6.43;4.20;;;;;;;;;;5032589;28;20421;-72
2021/07/06 03:10:24;;;;;;;4.67;4.23;;;;;;;;;;5032676;28;20498;-72
2021/07/06 03:12:51;;;;;;;4.63;4.23;;;;;;;;;;5033010;28;20417;-70
2021/07/06 03:15:18;;;;;;;5.03;4.40;;;;;;;;;;5033068;28;20416;-73
2021/07/06 03:17:45;;;;;;;5.30;4.30;;;;;;;;;;5036552;28;20420;-72
2021/07/06 03:20:12;;;;;;;4.67;4.27;;;;;;;;;;5037031;28;20486;-69
2021/07/06 03:22:38;;;;;;;7.87;4.50;;;;;;;;;;5036908;28;20500;-72
2021/07/06 03:25:06;;;;;;;5.00;4.60;;;;;;;;;;5036983;28;20415;-73
2021/07/06 03:27:32;;;;;;;4.40;4.00;;;;;;;;;;5036535;28;20431;-73
2021/07/06 03:29:58;;;;;;;5.30;4.90;;;;;;;;;;5036712;28;20470;-70
2021/07/06 03:32:24;;;;;;;4.50;4.20;;;;;;;;;;5036754;28;20408;-71
2021/07/06 03:34:50;;;;;;;4.83;4.33;;;;;;;;;;5036566;28;20404;-74
2021/07/06 03:37:16;;;;;;;6.33;5.50;;;;;;;;;;5036677;28;20494;-71
2021/07/06 03:39:42;;;;;;;7.43;4.20;;;;;;;;;;5036677;28;20770;-74
2021/07/06 03:42:09;;;;;;;4.60;4.20;;;;;;;;;;5036870;28;20417;-71
2021/07/06 03:44:35;;;;;;;4.23;3.93;;;;;;;;;;5036377;28;20928;-73
2021/07/06 03:47:01;;;;;;;4.73;4.33;;;;;;;;;;5035835;28;20428;-72
2021/07/06 03:49:28;;;;;;;5.30;4.10;;;;;;;;;;5036004;28;20468;-72
2021/07/06 03:51:54;;;;;;;4.97;4.47;;;;;;;;;;5036335;28;20769;-74
2021/07/06 03:54:20;;;;;;;4.97;4.53;;;;;;;;;;5036067;28;20409;-74
2021/07/06 03:56:46;;;;;;;5.00;4.00;;;;;;;;;;5035704;28;20904;-73
2021/07/06 03:59:12;;;;;;;4.80;4.40;;;;;;;;;;5035570;28;20452;-73
2021/07/06 04:01:38;;;;;;;4.97;4.47;;;;;;;;;;5036149;28;20420;-72
2021/07/06 04:04:04;;;;;;;5.20;4.70;;;;;;;;;;5035892;28;20481;-73
2021/07/06 04:06:31;;;;;;;5.03;4.63;;;;;;;;;;5036212;28;20483;-72
2021/07/06 04:08:57;;;;;;;4.70;4.13;;;;;;;;;;5034573;28;20459;-72
2021/07/06 04:11:23;;;;;;;5.50;4.80;;;;;;;;;;5036077;28;20755;-71
2021/07/06 04:13:50;;;;;;;5.30;4.80;;;;;;;;;;5036007;28;20466;-73
2021/07/06 04:16:17;;;;;;;5.20;4.70;;;;;;;;;;5035706;28;20409;-73
2021/07/06 04:18:43;;;;;;;4.67;4.27;;;;;;;;;;5035628;28;20417;-73
2021/07/06 04:21:09;;;;;;;5.17;4.77;;;;;;;;;;5035971;28;20511;-72
2021/07/06 04:23:36;;;;;;;5.20;4.70;;;;;;;;;;5035959;28;20416;-72
2021/07/06 04:26:02;;;;;;;5.10;4.70;;;;;;;;;;5028569;28;20861;-73
2021/07/06 04:28:28;;;;;;;5.90;5.40;;;;;;;;;;5035167;28;20421;-72
2021/07/06 04:30:54;;;;;;;5.50;4.73;;;;;;;;;;5035606;28;20909;-73
2021/07/06 04:33:20;;;;;;;5.57;4.80;;;;;;;;;;5035734;28;20913;-71
2021/07/06 04:35:46;;;;;;;5.83;5.43;;;;;;;;;;5035410;28;20417;-71
2021/07/06 04:38:12;;;;;;;4.93;4.53;;;;;;;;;;5035620;28;20416;-71
2021/07/06 04:40:40;;;;;;;4.80;4.50;;;;;;;;;;5035421;28;20463;-71
2021/07/06 04:43:06;;;;;;;6.10;5.03;;;;;;;;;;5035438;28;20419;-73
2021/07/06 04:45:36;;;;;;;5.33;4.93;;;;;;;;;;5035140;28;20447;-72
2021/07/06 04:48:03;;;;;;;5.20;4.77;;;;;;;;;;5034870;28;20889;-71
2021/07/06 04:50:29;;;;;;;5.40;4.97;;;;;;;;;;5034898;28;20468;-71
2021/07/06 04:52:56;;;;;;;5.40;4.90;;;;;;;;;;5035149;28;20420;-73
2021/07/06 04:55:22;;;;;;;5.30;4.80;;;;;;;;;;5035242;28;20475;-70
2021/07/06 04:57:48;;;;;;;5.27;4.87;;;;;;;;;;5034893;28;20781;-71
2021/07/06 05:00:16;;;;;;;5.60;5.10;;;;;;;;;;5034941;28;20538;-74
2021/07/06 05:02:42;;;;;;;4.90;4.50;;;;;;;;;;5035151;28;20431;-70
2021/07/06 05:05:09;;;;;;;5.70;5.30;;;;;;;;;;5034904;28;20931;-72
2021/07/06 05:07:35;;;;;;;5.60;5.10;;;;;;;;;;5034478;28;20423;-71
2021/07/06 05:10:02;;;;;;;5.47;4.97;;;;;;;;;;5034942;28;20496;-70
2021/07/06 05:12:28;;;;;;;5.03;4.53;;;;;;;;;;5034905;28;20824;-74
2021/07/06 05:14:54;;;;;;;5.80;5.27;;;;;;;;;;5034698;28;20413;-70
2021/07/06 05:17:20;;;;;;;6.93;5.60;;;;;;;;;;5034440;28;20847;-73
2021/07/06 05:19:46;;;;;;;5.77;5.27;;;;;;;;;;5034523;28;20527;-72
2021/07/06 05:22:12;;;;;;;7.33;4.80;;;;;;;;;;5034553;28;20436;-70
2021/07/06 05:24:38;;;;;;;5.20;4.70;;;;;;;;;;5034842;28;20877;-70
2021/07/06 05:27:05;;;;;;;5.77;5.27;;;;;;;;;;5034202;28;20750;-71
2021/07/06 05:29:31;;;;;;;6.23;5.27;;;;;;;;;;5034435;28;20468;-71
2021/07/06 05:31:57;;;;;;;6.57;5.13;;;;;;;;;;5034550;28;20421;-74
2021/07/06 05:34:23;;;;;;;4.90;4.50;;;;;;;;;;5034253;28;20897;-73
2021/07/06 05:36:50;;;;;;;5.10;4.70;;;;;;;;;;5033910;28;20878;-71
2021/07/06 05:39:16;;;;;;;4.77;4.37;;;;;;;;;;5034030;28;20494;-72
2021/07/06 05:41:42;;;;;;;4.90;4.50;;;;;;;;;;5034214;28;20417;-73
2021/07/06 05:44:09;;;;;;;4.80;4.40;;;;;;;;;;5034217;28;20896;-73
2021/07/06 05:46:35;;;;;;;4.40;4.00;;;;;;;;;;5033687;28;20412;-72
2021/07/06 05:49:01;;;;;;;5.60;5.10;;;;;;;;;;5034017;28;20456;-74
2021/07/06 05:51:27;;;;;;;5.00;4.50;;;;;;;;;;5033959;28;20412;-71
2021/07/06 05:53:54;;;;;;;4.70;4.30;;;;;;;;;;5034160;28;20468;-72
2021/07/06 05:56:20;;;;;;;4.70;4.30;;;;;;;;;;5033765;28;20821;-73
2021/07/06 05:58:47;;;;;;;4.33;4.03;;;;;;;;;;5033621;28;20443;-73
2021/07/06 06:01:13;;;;;;;4.40;4.10;;;;;;;;;;5033595;28;20520;-73
2021/07/06 06:03:39;;;;;;;4.43;4.03;;;;;;;;;;5033304;28;20428;-72
2021/07/06 06:06:05;;;;;;;4.37;3.97;;;;;;;;;;5033677;28;20421;-73
2021/07/06 06:08:31;;;;;;;4.27;3.97;;;;;;;;;;5033198;28;20424;-71
2021/07/06 06:10:57;;;;;;;4.20;3.87;;;;;;;;;;5033584;28;20998;-72
2021/07/06 06:13:23;;;;;;;3.70;3.40;;;;;;;;;;5033746;28;20770;-72
2021/07/06 06:15:49;;;;;;;4.50;4.03;;;;;;;;;;5032920;28;20428;-71
2021/07/06 06:18:15;;;;;;;5.97;3.47;;;;;;;;;;5033007;28;20413;-70
2021/07/06 06:20:41;;;;;;;4.40;4.10;;;;;;;;;;5033231;28;20988;-71
2021/07/06 06:23:07;;;;;;;3.90;3.60;;;;;;;;;;5033772;28;20454;-74
2021/07/06 06:25:33;;;;;;;3.90;3.60;;;;;;;;;;5033749;28;20543;-73
2021/07/06 06:27:59;;;;;;;4.10;3.80;;;;;;;;;;5030988;28;20432;-75
2021/07/06 06:30:26;;;;;;;4.20;3.80;;;;;;;;;;5032993;28;20534;-73
2021/07/06 06:32:55;;;;;;;3.80;3.50;;;;;;;;;;5033493;28;20415;-72
2021/07/06 06:35:21;;;;;;;3.63;3.20;;;;;;;;;;5032767;28;20428;-72
2021/07/06 06:37:47;;;;;;;4.47;4.13;;;;;;;;;;5032778;28;20409;-73
2021/07/06 06:40:13;;;;;;;4.00;3.70;;;;;;;;;;5030768;28;20448;-72
2021/07/06 06:42:39;;;;;;;4.17;3.87;;;;;;;;;;5028113;28;20515;-71
2021/07/06 06:45:06;;;;;;;3.23;2.93;;;;;;;;;;5028947;28;20424;-71
2021/07/06 06:47:32;;;;;;;4.07;3.60;;;;;;;;;;5022743;28;20448;-70
2021/07/06 06:49:58;;;;;;;4.23;3.20;;;;;;;;;;5029174;28;20468;-69
2021/07/06 06:52:24;;;;;;;3.50;3.20;;;;;;;;;;5029168;28;21031;-72
2021/07/06 06:54:51;;;;;;;3.77;2.97;;;;;;;;;;5029537;28;20495;-72
2021/07/06 06:57:21;;;;;;;3.93;3.10;;;;;;;;;;5028197;28;20409;-74
2021/07/06 06:59:48;;;;;;;3.10;2.90;;;;;;;;;;5029109;28;20464;-70
2021/07/06 07:02:17;;;;;;;3.80;3.07;;;;;;;;;;5028018;28;20428;-72
2021/07/06 07:04:44;;;;;;;5.50;3.17;;;;;;;;;;5029075;28;20463;-71
2021/07/06 07:07:10;;;;;;;3.17;2.90;;;;;;;;;;5028703;28;20438;-72
2021/07/06 07:09:36;;;;;;;2.90;2.70;;;;;;;;;;5029162;28;20575;-74
2021/07/06 07:12:02;;;;;;;4.73;3.00;;;;;;;;;;5028887;28;20416;-73
2021/07/06 07:14:28;;;;;;;3.10;2.80;;;;;;;;;;5028715;28;20415;-69
2021/07/06 07:16:54;;;;;;;3.83;3.53;;;;;;;;;;5028679;28;20428;-73
2021/07/06 07:19:20;;;;;;;3.13;2.77;;;;;;;;;;5028904;28;20446;-70
2021/07/06 07:21:46;;;;;;;3.10;2.80;;;;;;;;;;5028905;28;20422;-73
2021/07/06 07:24:12;;;;;;;2.90;2.70;;;;;;;;;;5028869;28;20499;-75
2021/07/06 07:26:38;;;;;;;3.50;3.03;;;;;;;;;;5028340;28;20527;-70
2021/07/06 07:29:05;;;;;;;3.30;3.00;;;;;;;;;;5028492;28;20459;-73
2021/07/06 07:31:32;;;;;;;4.10;2.90;;;;;;;;;;5028770;28;20507;-72
2021/07/06 07:33:58;;;;;;;3.30;2.97;;;;;;;;;;5028951;28;20412;-73
2021/07/06 07:36:24;;;;;;;5.67;2.60;;;;;;;;;;5028533;28;20408;-73
2021/07/06 07:38:52;;;;;;;3.80;2.70;;;;;;;;;;5028633;28;20413;-74
2021/07/06 07:41:18;;;;;;;3.90;2.77;;;;;;;;;;5028359;28;20412;-73
2021/07/06 07:43:44;;;;;;;3.23;2.57;;;;;;;;;;5028815;28;20412;-72
2021/07/06 07:46:10;;;;;;;3.27;2.60;;;;;;;;;;5028710;28;20413;-72
2021/07/06 07:48:36;;;;;;;2.97;2.77;;;;;;;;;;5028154;28;20412;-70
2021/07/06 07:51:02;;;;;;;2.63;2.43;;;;;;;;;;5028823;28;20451;-71
2021/07/06 07:53:28;;;;;;;2.70;2.50;;;;;;;;;;5028852;28;20445;-70
2021/07/06 07:55:55;;;;;;;2.47;2.20;;;;;;;;;;5028768;28;20420;-72
2021/07/06 07:58:21;;;;;;;2.90;2.53;;;;;;;;;;5028124;28;20425;-70
2021/07/06 08:00:47;;;;;;;3.60;2.40;;;;;;;;;;5028461;28;20463;-72
2021/07/06 08:03:13;;;;;;;2.67;2.47;;;;;;;;;;5031693;28;20451;-71
2021/07/06 08:05:39;;;;;;;3.30;2.27;;;;;;;;;;5032243;28;20864;-73
2021/07/06 08:08:05;;;;;;;2.83;2.50;;;;;;;;;;5031675;28;20463;-73
2021/07/06 08:10:31;;;;;;;2.60;2.40;;;;;;;;;;5031889;28;20571;-72
2021/07/06 08:12:57;;;;;;;3.80;2.20;;;;;;;;;;5030564;28;20543;-71
2021/07/06 08:15:23;;;;;;;2.50;2.30;;;;;;;;;;5031352;28;20527;-71
2021/07/06 08:17:49;;;;;;;3.20;2.00;;;;;;;;;;5031459;28;20780;-73
2021/07/06 08:20:15;;;;;;;2.97;2.67;;;;;;;;;;5031712;28;20463;-71
2021/07/06 08:22:41;;;;;;;4.03;2.00;;;;;;;;;;5031542;28;20432;-72
2021/07/06 08:25:08;;;;;;;2.30;2.00;;;;;;;;;;5031593;28;20452;-71
2021/07/06 08:27:34;;;;;;;2.47;2.27;;;;;;;;;;5031362;28;20417;-70
2021/07/06 08:30:00;;;;;;;2.50;2.30;;;;;;;;;;5031542;28;20525;-73
2021/07/06 08:32:26;;;;;;;2.57;2.00;;;;;;;;;;5031091;28;20413;-73
2021/07/06 08:34:52;;;;;;;2.43;1.90;;;;;;;;;;5037449;28;20492;-71
2021/07/06 08:37:18;;;;;;;6.50;2.07;;;;;;;;;;5031572;28;20496;-72
2021/07/06 08:39:44;;;;;;;2.50;2.20;;;;;;;;;;5032070;28;20937;-71
2021/07/06 08:42:10;;;;;;;2.10;1.80;;;;;;;;;;5031419;28;20420;-70
2021/07/06 08:44:37;;;;;;;3.73;2.40;;;;;;;;;;5031427;28;20471;-71
2021/07/06 08:47:03;;;;;;;2.63;2.13;;;;;;;;;;5031153;28;20475;-70
2021/07/06 08:49:29;;;;;;;2.67;2.47;;;;;;;;;;5031241;28;20843;-71
2021/07/06 08:51:55;;;;;;;2.93;2.10;;;;;;;;;;5031531;28;20412;-69
2021/07/06 08:54:22;;;;;;;2.10;1.90;;;;;;;;;;5031219;28;20423;-69
2021/07/06 08:56:49;;;;;;;3.37;2.20;;;;;;;;;;5030860;28;20413;-73
2021/07/06 08:59:15;;;;;;;2.60;2.40;;;;;;;;;;5031039;28;20874;-68
2021/07/06 09:01:41;;;;;;;2.60;2.20;;;;;;;;;;5031364;28;20471;-71
2021/07/06 09:04:07;;;;;;;4.73;2.33;;;;;;;;;;5030926;28;20847;-70
2021/07/06 09:06:54;;;;;;;3.37;2.37;;;;;;;;;;5030921;28;20416;-69
2021/07/06 09:09:24;;;;;;;2.87;2.60;;;;;;;;;;5027196;28;20468;-70
2021/07/06 09:11:51;;;;;;;3.17;2.90;;;;;;;;;;5031108;28;20420;-71
2021/07/06 09:14:17;;;;;;;3.60;3.30;;;;;;;;;;5029484;28;20813;-69
2021/07/06 09:16:43;;;;;;;4.20;3.17;;;;;;;;;;5029971;28;20436;-71
2021/07/06 09:19:16;;;;;;;3.03;2.50;;;;;;;;;;5030661;28;20416;-72
2021/07/06 09:21:42;;;;;;;4.93;2.87;;;;;;;;;;5030933;28;20478;-72
2021/07/06 09:24:21;;;;;;;3.83;3.10;;;;;;;;;;5030574;28;20427;-74
2021/07/06 09:26:47;;;;;;;2.50;2.30;;;;;;;;;;5030290;28;20416;-71
2021/07/06 09:29:16;;;;;;;2.90;2.60;;;;;;;;;;5030130;28;20475;-70
2021/07/06 09:31:43;;;;;;;5.17;2.53;;;;;;;;;;5023639;28;20417;-72
2021/07/06 09:34:10;;;;;;;3.00;2.70;;;;;;;;;;5023843;28;20459;-70
2021/07/06 09:36:38;;;;;;;3.23;2.30;;;;;;;;;;5029778;28;21166;-71
2021/07/06 09:39:15;;;;;;;3.10;2.90;;;;;;;;;;5030622;28;20835;-73
2021/07/06 09:41:45;;;;;;;3.00;2.70;;;;;;;;;;5030429;28;20435;-72
2021/07/06 09:44:15;;;;;;;2.63;2.43;;;;;;;;;;5030190;28;20412;-72
2021/07/06 09:46:48;;;;;;;2.77;2.50;;;;;;;;;;5029865;28;20420;-69
2021/07/06 09:49:16;;;;;;;3.47;2.60;;;;;;;;;;5029987;28;20480;-70
2021/07/06 09:51:42;;;;;;;3.67;3.30;;;;;;;;;;5029823;28;20441;-70
2021/07/06 09:54:08;;;;;;;3.37;2.47;;;;;;;;;;5028765;28;20425;-72
2021/07/06 09:56:41;;;;;;;4.40;2.80;;;;;;;;;;5029750;28;20421;-71
2021/07/06 09:59:07;;;;;;;2.97;2.67;;;;;;;;;;5029251;28;20770;-73
2021/07/06 10:01:33;;;;;;;3.67;2.60;;;;;;;;;;5030209;28;20767;-72
2021/07/06 10:04:00;;;;;;;3.90;2.97;;;;;;;;;;5029933;28;20523;-72
2021/07/06 10:06:27;;;;;;;2.70;2.00;;;;;;;;;;5030048;28;20499;-72
2021/07/06 10:08:54;;;;;;;2.50;2.00;;;;;;;;;;5029385;28;20763;-71
2021/07/06 10:11:21;;;;;;;9.40;2.93;;;;;;;;;;5029759;28;20470;-70
2021/07/06 10:13:47;;;;;;;2.57;2.27;;;;;;;;;;5029761;28;20425;-73
2021/07/06 10:16:16;;;;;;;3.80;1.90;;;;;;;;;;5029639;28;20419;-72
2021/07/06 10:18:43;;;;;;;2.70;2.00;;;;;;;;;;5023280;28;20413;-72
2021/07/06 10:21:09;;;;;;;3.23;2.80;;;;;;;;;;5029538;28;20539;-70
2021/07/06 10:23:37;;;;;;;3.03;2.07;;;;;;;;;;5029711;28;20442;-73
2021/07/06 10:26:05;;;;;;;2.50;2.30;;;;;;;;;;5022091;28;20457;-73
2021/07/06 10:28:32;;;;;;;2.47;2.27;;;;;;;;;;5029065;28;20436;-71
2021/07/06 10:31:14;;;;;;;4.77;1.80;;;;;;;;;;5022586;28;20468;-70
2021/07/06 10:33:41;;;;;;;2.37;2.00;;;;;;;;;;5024262;28;20409;-73
2021/07/06 10:36:07;;;;;;;3.10;2.10;;;;;;;;;;5025051;28;20412;-72
2021/07/06 10:38:38;;;;;;;2.50;2.00;;;;;;;;;;5029153;28;20508;-72
2021/07/06 10:41:08;;;;;;;3.13;2.10;;;;;;;;;;5029550;28;20432;-73
2021/07/06 10:43:34;;;;;;;2.17;1.90;;;;;;;;;;5028805;28;20967;-72
2021/07/06 10:46:16;;;;;;;4.47;2.17;;;;;;;;;;5029287;28;20417;-73
2021/07/06 10:48:43;;;;;;;2.73;2.30;;;;;;;;;;5028884;28;20412;-71
2021/07/06 10:51:09;;;;;;;2.50;2.30;;;;;;;;;;5029140;28;20541;-71
2021/07/06 10:53:35;;;;;;;2.70;2.50;;;;;;;;;;5029569;28;20417;-74
2021/07/06 10:56:12;;;;;;;4.10;2.00;;;;;;;;;;5029339;28;20444;-71
2021/07/06 10:58:47;;;;;;;3.80;2.33;;;;;;;;;;5028257;28;20467;-72
2021/07/06 11:01:53;;;;;;;4.00;2.60;;;;;;;;;;5028654;28;20443;-74
2021/07/06 11:04:40;;;;;;;2.97;2.20;;;;;;;;;;4967926;28;20506;-74
2021/07/06 11:07:07;;;;;;;3.67;2.27;;;;;;;;;;4967543;28;20518;-70
2021/07/06 11:09:34;;;;;;;2.83;2.37;;;;;;;;;;5006284;28;20503;-73
2021/07/06 11:12:24;;;;;;;3.63;2.10;;;;;;;;;;5028857;28;20409;-71
2021/07/06 11:14:57;;;;;;;5.00;2.40;;;;;;;;;;5014516;28;20425;-70
2021/07/06 11:17:32;;;;;;;4.73;2.57;;;;;;;;;;5028714;28;20420;-72
2021/07/06 11:19:59;;;;;;;3.13;2.83;;;;;;;;;;5028765;28;20454;-69
2021/07/06 11:22:39;;;;;;;3.70;2.80;;;;;;;;;;5028952;28;20420;-72
2021/07/06 11:25:18;;;;;;;4.70;2.83;;;;;;;;;;5028289;28;20498;-71
2021/07/06 11:28:00;;;;;;;2.97;2.30;;;;;;;;;;5022186;28;20500;-71
2021/07/06 11:30:26;;;;;;;2.67;2.37;;;;;;;;;;5024082;28;20468;-72
2021/07/06 11:33:24;;;;;;;2.23;1.90;;;;;;;;;;5027194;28;20416;-72
2021/07/06 11:35:52;;;;;;;2.87;2.67;;;;;;;;;;5016986;28;20432;-71
2021/07/06 11:38:19;;;;;;;3.40;2.40;;;;;;;;;;5032288;28;20408;-71
2021/07/06 11:40:47;;;;;;;2.73;2.53;;;;;;;;;;5032307;28;20445;-73
2021/07/06 11:43:14;;;;;;;2.60;2.40;;;;;;;;;;5032336;28;20420;-74
2021/07/06 11:45:40;;;;;;;3.07;2.40;;;;;;;;;;5032245;28;20503;-71
2021/07/06 11:48:11;;;;;;;2.53;2.33;;;;;;;;;;5032083;28;20581;-71
2021/07/06 11:50:37;;;;;;;5.50;3.03;;;;;;;;;;5032156;28;20476;-72
2021/07/06 11:53:04;;;;;;;22.97;14.33;;;;;;;;;;5031946;28;20416;-71
2021/07/06 11:55:31;;;;;;;7.33;6.33;;;;;;;;;;5032102;28;20411;-69
2021/07/06 11:57:57;;;;;;;2.40;2.20;;;;;;;;;;5031907;28;20416;-72
2021/07/06 12:00:24;;;;;;;7.60;2.50;;;;;;;;;;5032022;28;21007;-72
2021/07/06 12:02:50;;;;;;;2.83;2.33;;;;;;;;;;5030358;28;20432;-71
2021/07/06 12:05:18;;;;;;;7.97;7.23;;;;;;;;;;5032062;28;20416;-72
2021/07/06 12:07:44;;;;;;;5.20;3.70;;;;;;;;;;5031775;28;20428;-72
2021/07/06 12:10:10;;;;;;;3.20;2.20;;;;;;;;;;5031962;28;20517;-72
2021/07/06 12:12:37;;;;;;;2.87;2.30;;;;;;;;;;5030624;28;20712;-72
2021/07/06 12:15:04;;;;;;;3.03;2.37;;;;;;;;;;5031830;28;20925;-74
2021/07/06 12:17:31;;;;;;;3.07;2.13;;;;;;;;;;5031618;28;20427;-72
2021/07/06 12:19:58;;;;;;;2.50;2.07;;;;;;;;;;5031656;28;20448;-72
2021/07/06 12:22:25;;;;;;;2.60;2.30;;;;;;;;;;5031765;28;20917;-74
2021/07/06 12:24:52;;;;;;;2.73;1.87;;;;;;;;;;5031628;28;20416;-73
2021/07/06 12:27:18;;;;;;;2.73;2.23;;;;;;;;;;5031176;28;20425;-70
2021/07/06 12:29:53;;;;;;;2.63;1.83;;;;;;;;;;5031677;28;20525;-70
2021/07/06 12:32:19;;;;;;;4.07;2.10;;;;;;;;;;5031729;28;20412;-71
2021/07/06 12:34:50;;;;;;;2.27;1.80;;;;;;;;;;5031600;28;20428;-71
2021/07/06 12:37:17;;;;;;;2.37;1.77;;;;;;;;;;5023630;28;21054;-70
2021/07/06 12:39:45;;;;;;;2.10;1.57;;;;;;;;;;5032050;28;21104;-74
2021/07/06 12:42:12;;;;;;;2.00;1.53;;;;;;;;;;5031662;28;20413;-73
2021/07/06 12:44:38;;;;;;;3.53;2.17;;;;;;;;;;5031585;28;20920;-73
2021/07/06 12:47:16;;;;;;;2.00;1.70;;;;;;;;;;5030596;28;20527;-71
2021/07/06 12:49:57;;;;;;;2.47;1.90;;;;;;;;;;5031143;28;20570;-71
2021/07/06 12:52:43;;;;;;;4.27;1.87;;;;;;;;;;5031298;28;20412;-71
2021/07/06 12:55:14;;;;;;;3.57;1.90;;;;;;;;;;5031148;28;20420;-74
2021/07/06 12:57:41;;;;;;;3.37;2.00;;;;;;;;;;5030962;28;20439;-73
2021/07/06 13:00:12;;;;;;;3.50;2.03;;;;;;;;;;5031094;28;20452;-72
2021/07/06 13:02:38;;;;;;;3.17;2.23;;;;;;;;;;5031468;28;20447;-75
2021/07/06 13:05:05;;;;;;;2.10;1.77;;;;;;;;;;5031317;28;20421;-75
2021/07/06 13:07:32;;;;;;;2.20;1.97;;;;;;;;;;5030709;28;20428;-74
2021/07/06 13:10:02;;;;;;;4.07;1.87;;;;;;;;;;5031148;28;20939;-73
2021/07/06 13:12:28;;;;;;;2.37;2.17;;;;;;;;;;5026306;28;20841;-74
2021/07/06 13:14:54;;;;;;;3.27;2.23;;;;;;;;;;5030920;28;20459;-73
2021/07/06 13:17:21;;;;;;;3.00;2.70;;;;;;;;;;5030489;28;20417;-74
2021/07/06 13:19:57;;;;;;;3.60;2.23;;;;;;;;;;5030892;28;20558;-74
2021/07/06 13:22:23;;;;;;;2.93;2.27;;;;;;;;;;5030823;28;20809;-73
2021/07/06 13:24:49;;;;;;;2.20;1.77;;;;;;;;;;5030711;28;20535;-73
2021/07/06 13:27:15;;;;;;;2.63;1.70;;;;;;;;;;5029947;28;20401;-72
2021/07/06 13:29:42;;;;;;;2.40;1.50;;;;;;;;;;5030647;28;20468;-72
2021/07/06 13:32:08;;;;;;;2.53;1.90;;;;;;;;;;5030637;28;20415;-74
2021/07/06 13:34:34;;;;;;;2.90;1.63;;;;;;;;;;5030440;28;20420;-74
2021/07/06 13:37:00;;;;;;;2.20;1.70;;;;;;;;;;5030156;28;20750;-73
2021/07/06 13:39:26;;;;;;;2.17;1.90;;;;;;;;;;5030883;28;20444;-74
2021/07/06 13:41:52;;;;;;;4.67;1.87;;;;;;;;;;5030374;28;20452;-73
2021/07/06 13:44:18;;;;;;;2.63;2.03;;;;;;;;;;5030203;28;20984;-73
2021/07/06 13:46:44;;;;;;;2.00;1.80;;;;;;;;;;5030040;28;21043;-72
2021/07/06 13:49:10;;;;;;;2.80;1.97;;;;;;;;;;5029451;28;20504;-72
2021/07/06 13:51:36;;;;;;;2.83;2.30;;;;;;;;;;5030352;28;20467;-73
2021/07/06 13:54:07;;;;;;;2.37;1.83;;;;;;;;;;5030075;28;20412;-73
2021/07/06 13:56:33;;;;;;;2.17;1.90;;;;;;;;;;5029917;28;20412;-72
2021/07/06 13:58:59;;;;;;;2.60;1.73;;;;;;;;;;5029172;28;20424;-72
2021/07/06 14:01:25;;;;;;;2.10;1.90;;;;;;;;;;5030002;28;20828;-73
2021/07/06 14:03:51;;;;;;;2.60;2.10;;;;;;;;;;5029999;28;20425;-72
2021/07/06 14:06:17;;;;;;;2.53;2.33;;;;;;;;;;5029886;28;20424;-71
2021/07/06 14:08:45;;;;;;;2.77;2.57;;;;;;;;;;5029460;28;20845;-72
2021/07/06 14:11:13;;;;;;;2.50;2.30;;;;;;;;;;5029664;28;20443;-71
2021/07/06 14:13:39;;;;;;;2.10;1.80;;;;;;;;;;5030083;28;20777;-72
2021/07/06 14:16:06;;;;;;;2.93;2.30;;;;;;;;;;5029976;28;20411;-72
2021/07/06 14:18:32;;;;;;;2.80;2.10;;;;;;;;;;5029600;28;20413;-71
2021/07/06 14:20:58;;;;;;;2.40;2.10;;;;;;;;;;5028481;28;21281;-71
2021/07/06 14:23:24;;;;;;;4.10;1.90;;;;;;;;;;5029807;28;20416;-71
2021/07/06 14:25:50;;;;;;;4.10;2.73;;;;;;;;;;5029861;28;20412;-71
2021/07/06 14:28:16;;;;;;;2.67;2.20;;;;;;;;;;5029255;28;20409;-69
2021/07/06 14:30:43;;;;;;;2.50;2.10;;;;;;;;;;5029535;28;20868;-72
2021/07/06 14:33:09;;;;;;;2.60;2.20;;;;;;;;;;5029507;28;20828;-72
2021/07/06 14:35:35;;;;;;;2.60;2.33;;;;;;;;;;5029218;28;20420;-72
2021/07/06 14:38:01;;;;;;;2.30;2.10;;;;;;;;;;5028953;28;20416;-72
2021/07/06 14:40:27;;;;;;;2.50;2.10;;;;;;;;;;5029785;28;20448;-71
2021/07/06 14:42:53;;;;;;;4.10;2.30;;;;;;;;;;5029353;28;20793;-71
2021/07/06 14:45:20;;;;;;;2.30;1.80;;;;;;;;;;5029281;28;20439;-73